sensor_id;sensor_type;location;lat;lon;timestamp;P1;durP1;ratioP1;P2;durP2;ratioP2
33108;SDS011;19481;51.118;6.940;2022-11-20T00:03:09;19.10;;;9.45;;
33108;SDS011;19481;51.118;6.940;2022-11-20T00:08:11;18.52;;;8.07;;
33108;SDS011;19481;51.118;6.940;2022-11-20T00:13:12;14.40;;;7.63;;
33108;SDS011;19481;51.118;6.940;2022-11-20T00:18:16;15.82;;;7.65;;
33108;SDS011;19481;51.118;6.940;2022-11-20T00:23:18;16.15;;;8.38;;
33108;SDS011;19481;51.118;6.940;2022-11-20T00:28:19;16.92;;;8.02;;
33108;SDS011;19481;51.118;6.940;2022-11-20T00:33:22;13.38;;;8.15;;
33108;SDS011;19481;51.118;6.940;2022-11-20T00:38:24;13.60;;;7.57;;
33108;SDS011;19481;51.118;6.940;2022-11-20T00:43:26;11.88;;;7.35;;
33108;SDS011;19481;51.118;6.940;2022-11-20T00:48:29;13.70;;;8.02;;
33108;SDS011;19481;51.118;6.940;2022-11-20T00:53:31;15.15;;;7.88;;
33108;SDS011;19481;51.118;6.940;2022-11-20T00:58:33;13.80;;;7.38;;
33108;SDS011;19481;51.118;6.940;2022-11-20T01:03:39;13.23;;;7.85;;
33108;SDS011;19481;51.118;6.940;2022-11-20T01:08:42;12.25;;;6.75;;
33108;SDS011;19481;51.118;6.940;2022-11-20T01:13:45;12.77;;;7.72;;
33108;SDS011;19481;51.118;6.940;2022-11-20T01:18:49;13.40;;;7.70;;
33108;SDS011;19481;51.118;6.940;2022-11-20T01:23:52;12.98;;;7.53;;
33108;SDS011;19481;51.118;6.940;2022-11-20T01:28:54;10.27;;;7.40;;
33108;SDS011;19481;51.118;6.940;2022-11-20T01:33:58;15.02;;;7.75;;
33108;SDS011;19481;51.118;6.940;2022-11-20T01:39:02;12.95;;;7.80;;
33108;SDS011;19481;51.118;6.940;2022-11-20T01:44:06;12.40;;;6.93;;
33108;SDS011;19481;51.118;6.940;2022-11-20T01:49:11;11.30;;;6.30;;
33108;SDS011;19481;51.118;6.940;2022-11-20T01:54:19;12.73;;;6.90;;
33108;SDS011;19481;51.118;6.940;2022-11-20T01:59:25;10.10;;;6.63;;
33108;SDS011;19481;51.118;6.940;2022-11-20T02:04:30;10.95;;;6.60;;
33108;SDS011;19481;51.118;6.940;2022-11-20T02:09:31;14.05;;;7.55;;
33108;SDS011;19481;51.118;6.940;2022-11-20T02:14:33;12.75;;;7.20;;
33108;SDS011;19481;51.118;6.940;2022-11-20T02:19:36;11.05;;;7.25;;
33108;SDS011;19481;51.118;6.940;2022-11-20T02:24:39;11.23;;;6.30;;
33108;SDS011;19481;51.118;6.940;2022-11-20T02:29:44;10.40;;;6.65;;
33108;SDS011;19481;51.118;6.940;2022-11-20T02:34:48;13.55;;;7.32;;
33108;SDS011;19481;51.118;6.940;2022-11-20T02:39:52;10.73;;;7.35;;
33108;SDS011;19481;51.118;6.940;2022-11-20T02:44:54;15.65;;;7.07;;
33108;SDS011;19481;51.118;6.940;2022-11-20T02:49:56;14.10;;;6.78;;
33108;SDS011;19481;51.118;6.940;2022-11-20T02:54:59;10.23;;;6.85;;
33108;SDS011;19481;51.118;6.940;2022-11-20T03:00:00;13.63;;;7.50;;
33108;SDS011;19481;51.118;6.940;2022-11-20T03:05:02;13.40;;;7.45;;
33108;SDS011;19481;51.118;6.940;2022-11-20T03:10:06;13.10;;;7.40;;
33108;SDS011;19481;51.118;6.940;2022-11-20T03:15:09;13.45;;;7.28;;
33108;SDS011;19481;51.118;6.940;2022-11-20T03:20:11;10.98;;;6.78;;
33108;SDS011;19481;51.118;6.940;2022-11-20T03:25:14;10.63;;;6.50;;
33108;SDS011;19481;51.118;6.940;2022-11-20T03:30:16;14.18;;;7.10;;
33108;SDS011;19481;51.118;6.940;2022-11-20T03:35:18;11.93;;;6.95;;
33108;SDS011;19481;51.118;6.940;2022-11-20T03:40:21;11.63;;;6.20;;
33108;SDS011;19481;51.118;6.940;2022-11-20T03:45:22;13.00;;;7.20;;
33108;SDS011;19481;51.118;6.940;2022-11-20T03:50:24;12.88;;;6.95;;
33108;SDS011;19481;51.118;6.940;2022-11-20T03:55:27;11.07;;;6.57;;
33108;SDS011;19481;51.118;6.940;2022-11-20T04:00:28;13.23;;;7.75;;
33108;SDS011;19481;51.118;6.940;2022-11-20T04:05:30;10.95;;;6.53;;
33108;SDS011;19481;51.118;6.940;2022-11-20T04:10:35;12.48;;;7.22;;
33108;SDS011;19481;51.118;6.940;2022-11-20T04:15:37;9.45;;;6.57;;
33108;SDS011;19481;51.118;6.940;2022-11-20T04:20:39;10.25;;;6.53;;
33108;SDS011;19481;51.118;6.940;2022-11-20T04:25:42;12.63;;;7.03;;
33108;SDS011;19481;51.118;6.940;2022-11-20T04:30:51;12.50;;;7.50;;
33108;SDS011;19481;51.118;6.940;2022-11-20T04:35:52;12.52;;;7.50;;
33108;SDS011;19481;51.118;6.940;2022-11-20T04:40:57;14.80;;;7.65;;
33108;SDS011;19481;51.118;6.940;2022-11-20T04:46:00;11.40;;;6.65;;
33108;SDS011;19481;51.118;6.940;2022-11-20T04:51:02;12.32;;;7.22;;
33108;SDS011;19481;51.118;6.940;2022-11-20T04:56:06;14.98;;;7.53;;
33108;SDS011;19481;51.118;6.940;2022-11-20T05:01:10;14.20;;;6.85;;
33108;SDS011;19481;51.118;6.940;2022-11-20T05:06:14;12.05;;;7.18;;
33108;SDS011;19481;51.118;6.940;2022-11-20T05:11:18;11.43;;;6.55;;
33108;SDS011;19481;51.118;6.940;2022-11-20T05:16:21;13.25;;;7.50;;
33108;SDS011;19481;51.118;6.940;2022-11-20T05:21:24;14.23;;;7.63;;
33108;SDS011;19481;51.118;6.940;2022-11-20T05:26:27;13.38;;;7.70;;
33108;SDS011;19481;51.118;6.940;2022-11-20T05:31:29;12.20;;;7.47;;
33108;SDS011;19481;51.118;6.940;2022-11-20T05:36:30;13.25;;;7.60;;
33108;SDS011;19481;51.118;6.940;2022-11-20T05:41:34;9.50;;;6.55;;
33108;SDS011;19481;51.118;6.940;2022-11-20T05:46:36;12.25;;;6.95;;
33108;SDS011;19481;51.118;6.940;2022-11-20T05:51:37;11.38;;;7.20;;
33108;SDS011;19481;51.118;6.940;2022-11-20T05:56:40;12.63;;;7.13;;
33108;SDS011;19481;51.118;6.940;2022-11-20T06:01:42;13.85;;;6.88;;
33108;SDS011;19481;51.118;6.940;2022-11-20T06:06:44;14.38;;;7.30;;
33108;SDS011;19481;51.118;6.940;2022-11-20T06:11:47;13.43;;;7.65;;
33108;SDS011;19481;51.118;6.940;2022-11-20T06:16:48;14.98;;;7.43;;
33108;SDS011;19481;51.118;6.940;2022-11-20T06:21:50;11.00;;;6.75;;
33108;SDS011;19481;51.118;6.940;2022-11-20T06:26:53;14.77;;;7.38;;
33108;SDS011;19481;51.118;6.940;2022-11-20T06:31:54;16.90;;;7.55;;
33108;SDS011;19481;51.118;6.940;2022-11-20T06:36:57;13.05;;;7.18;;
33108;SDS011;19481;51.118;6.940;2022-11-20T06:42:01;14.73;;;7.75;;
33108;SDS011;19481;51.118;6.940;2022-11-20T06:47:03;14.82;;;7.55;;
33108;SDS011;19481;51.118;6.940;2022-11-20T06:52:04;13.18;;;7.40;;
33108;SDS011;19481;51.118;6.940;2022-11-20T06:57:07;15.05;;;7.75;;
33108;SDS011;19481;51.118;6.940;2022-11-20T07:02:09;11.45;;;7.05;;
33108;SDS011;19481;51.118;6.940;2022-11-20T07:07:12;13.65;;;7.10;;
33108;SDS011;19481;51.118;6.940;2022-11-20T07:12:15;13.40;;;7.38;;
33108;SDS011;19481;51.118;6.940;2022-11-20T07:17:16;14.55;;;7.82;;
33108;SDS011;19481;51.118;6.940;2022-11-20T07:22:18;27.40;;;11.30;;
33108;SDS011;19481;51.118;6.940;2022-11-20T07:27:23;18.00;;;10.52;;
33108;SDS011;19481;51.118;6.940;2022-11-20T07:32:24;14.95;;;7.82;;
33108;SDS011;19481;51.118;6.940;2022-11-20T07:37:26;23.77;;;11.48;;
33108;SDS011;19481;51.118;6.940;2022-11-20T07:42:29;17.23;;;9.20;;
33108;SDS011;19481;51.118;6.940;2022-11-20T07:47:34;22.02;;;10.85;;
33108;SDS011;19481;51.118;6.940;2022-11-20T07:52:36;15.38;;;8.10;;
33108;SDS011;19481;51.118;6.940;2022-11-20T07:57:39;15.88;;;8.05;;
33108;SDS011;19481;51.118;6.940;2022-11-20T08:02:41;13.23;;;7.63;;
33108;SDS011;19481;51.118;6.940;2022-11-20T08:07:43;25.40;;;12.10;;
33108;SDS011;19481;51.118;6.940;2022-11-20T08:12:47;18.60;;;9.88;;
33108;SDS011;19481;51.118;6.940;2022-11-20T08:18:07;16.10;;;8.45;;
33108;SDS011;19481;51.118;6.940;2022-11-20T08:23:10;13.48;;;7.78;;
33108;SDS011;19481;51.118;6.940;2022-11-20T08:28:14;15.23;;;8.20;;
33108;SDS011;19481;51.118;6.940;2022-11-20T08:33:15;14.10;;;8.77;;
33108;SDS011;19481;51.118;6.940;2022-11-20T08:38:17;14.38;;;8.70;;
33108;SDS011;19481;51.118;6.940;2022-11-20T08:43:20;14.70;;;8.35;;
33108;SDS011;19481;51.118;6.940;2022-11-20T08:48:22;17.75;;;8.35;;
33108;SDS011;19481;51.118;6.940;2022-11-20T08:53:24;14.45;;;7.65;;
33108;SDS011;19481;51.118;6.940;2022-11-20T08:58:27;16.45;;;8.18;;
33108;SDS011;19481;51.118;6.940;2022-11-20T09:03:29;17.45;;;7.68;;
33108;SDS011;19481;51.118;6.940;2022-11-20T09:08:31;15.40;;;9.10;;
33108;SDS011;19481;51.118;6.940;2022-11-20T09:13:35;17.90;;;8.90;;
33108;SDS011;19481;51.118;6.940;2022-11-20T09:18:38;14.23;;;9.07;;
33108;SDS011;19481;51.118;6.940;2022-11-20T09:23:41;19.50;;;9.35;;
33108;SDS011;19481;51.118;6.940;2022-11-20T09:28:45;14.88;;;8.90;;
33108;SDS011;19481;51.118;6.940;2022-11-20T09:33:46;15.52;;;8.57;;
33108;SDS011;19481;51.118;6.940;2022-11-20T09:38:48;19.25;;;8.23;;
33108;SDS011;19481;51.118;6.940;2022-11-20T09:43:52;14.05;;;8.05;;
33108;SDS011;19481;51.118;6.940;2022-11-20T09:49:03;14.45;;;8.40;;
33108;SDS011;19481;51.118;6.940;2022-11-20T09:54:17;9.47;;;5.80;;
33108;SDS011;19481;51.118;6.940;2022-11-20T09:59:31;9.30;;;6.32;;
33108;SDS011;19481;51.118;6.940;2022-11-20T10:04:37;13.20;;;6.88;;
33108;SDS011;19481;51.118;6.940;2022-11-20T10:09:49;8.05;;;5.35;;
33108;SDS011;19481;51.118;6.940;2022-11-20T10:14:59;17.35;;;8.68;;
33108;SDS011;19481;51.118;6.940;2022-11-20T10:26:11;13.13;;;7.68;;
33108;SDS011;19481;51.118;6.940;2022-11-20T10:31:27;15.40;;;7.97;;
33108;SDS011;19481;51.118;6.940;2022-11-20T10:36:33;13.55;;;8.25;;
33108;SDS011;19481;51.118;6.940;2022-11-20T10:41:38;13.25;;;7.78;;
33108;SDS011;19481;51.118;6.940;2022-11-20T10:46:44;16.33;;;8.02;;
33108;SDS011;19481;51.118;6.940;2022-11-20T10:51:50;14.13;;;8.07;;
33108;SDS011;19481;51.118;6.940;2022-11-20T10:57:00;14.98;;;8.68;;
33108;SDS011;19481;51.118;6.940;2022-11-20T11:02:16;14.90;;;7.85;;
33108;SDS011;19481;51.118;6.940;2022-11-20T11:07:21;15.88;;;8.68;;
33108;SDS011;19481;51.118;6.940;2022-11-20T11:12:26;13.90;;;7.88;;
33108;SDS011;19481;51.118;6.940;2022-11-20T11:17:31;12.35;;;8.30;;
33108;SDS011;19481;51.118;6.940;2022-11-20T11:22:34;14.05;;;8.25;;
33108;SDS011;19481;51.118;6.940;2022-11-20T11:27:45;15.50;;;8.40;;
33108;SDS011;19481;51.118;6.940;2022-11-20T11:32:49;16.30;;;8.85;;
33108;SDS011;19481;51.118;6.940;2022-11-20T11:37:51;19.00;;;8.95;;
33108;SDS011;19481;51.118;6.940;2022-11-20T11:42:55;15.43;;;8.90;;
33108;SDS011;19481;51.118;6.940;2022-11-20T11:48:01;15.43;;;8.65;;
33108;SDS011;19481;51.118;6.940;2022-11-20T11:53:07;19.00;;;9.32;;
33108;SDS011;19481;51.118;6.940;2022-11-20T11:58:19;17.48;;;8.75;;
33108;SDS011;19481;51.118;6.940;2022-11-20T12:03:34;16.13;;;9.43;;
33108;SDS011;19481;51.118;6.940;2022-11-20T12:08:39;16.57;;;8.37;;
33108;SDS011;19481;51.118;6.940;2022-11-20T12:13:48;17.15;;;9.02;;
33108;SDS011;19481;51.118;6.940;2022-11-20T12:18:55;16.02;;;9.23;;
33108;SDS011;19481;51.118;6.940;2022-11-20T12:24:06;21.23;;;10.35;;
33108;SDS011;19481;51.118;6.940;2022-11-20T12:29:25;19.52;;;10.10;;
33108;SDS011;19481;51.118;6.940;2022-11-20T12:34:42;19.63;;;10.13;;
33108;SDS011;19481;51.118;6.940;2022-11-20T12:39:49;16.08;;;8.73;;
33108;SDS011;19481;51.118;6.940;2022-11-20T12:45:02;21.17;;;10.00;;
33108;SDS011;19481;51.118;6.940;2022-11-20T12:50:28;14.80;;;9.30;;
33108;SDS011;19481;51.118;6.940;2022-11-20T12:55:42;20.00;;;10.35;;
33108;SDS011;19481;51.118;6.940;2022-11-20T13:00:51;19.33;;;9.20;;
33108;SDS011;19481;51.118;6.940;2022-11-20T13:06:01;17.30;;;10.30;;
33108;SDS011;19481;51.118;6.940;2022-11-20T13:11:09;18.45;;;10.55;;
33108;SDS011;19481;51.118;6.940;2022-11-20T13:16:19;17.00;;;9.27;;
33108;SDS011;19481;51.118;6.940;2022-11-20T13:21:36;16.13;;;9.00;;
33108;SDS011;19481;51.118;6.940;2022-11-20T13:26:39;15.88;;;9.30;;
33108;SDS011;19481;51.118;6.940;2022-11-20T13:31:42;16.75;;;9.65;;
33108;SDS011;19481;51.118;6.940;2022-11-20T13:36:50;16.58;;;8.48;;
33108;SDS011;19481;51.118;6.940;2022-11-20T13:41:54;16.60;;;8.77;;
33108;SDS011;19481;51.118;6.940;2022-11-20T13:46:56;19.40;;;10.25;;
33108;SDS011;19481;51.118;6.940;2022-11-20T13:52:03;21.33;;;10.23;;
33108;SDS011;19481;51.118;6.940;2022-11-20T14:03:07;13.73;;;7.07;;
33108;SDS011;19481;51.118;6.940;2022-11-20T14:08:14;18.13;;;9.25;;
33108;SDS011;19481;51.118;6.940;2022-11-20T14:13:32;18.52;;;10.10;;
33108;SDS011;19481;51.118;6.940;2022-11-20T14:18:34;20.33;;;10.07;;
33108;SDS011;19481;51.118;6.940;2022-11-20T14:23:37;17.33;;;8.93;;
33108;SDS011;19481;51.118;6.940;2022-11-20T14:28:38;16.10;;;8.63;;
33108;SDS011;19481;51.118;6.940;2022-11-20T14:33:41;17.13;;;8.60;;
33108;SDS011;19481;51.118;6.940;2022-11-20T14:38:44;18.55;;;9.30;;
33108;SDS011;19481;51.118;6.940;2022-11-20T14:43:47;16.85;;;9.13;;
33108;SDS011;19481;51.118;6.940;2022-11-20T14:48:51;14.82;;;8.23;;
33108;SDS011;19481;51.118;6.940;2022-11-20T14:53:57;13.80;;;8.25;;
33108;SDS011;19481;51.118;6.940;2022-11-20T14:59:09;15.15;;;9.35;;
33108;SDS011;19481;51.118;6.940;2022-11-20T15:04:11;18.95;;;8.50;;
33108;SDS011;19481;51.118;6.940;2022-11-20T15:09:14;17.23;;;8.82;;
33108;SDS011;19481;51.118;6.940;2022-11-20T15:14:16;15.57;;;8.98;;
33108;SDS011;19481;51.118;6.940;2022-11-20T15:19:19;16.40;;;9.23;;
33108;SDS011;19481;51.118;6.940;2022-11-20T15:24:23;17.50;;;8.90;;
33108;SDS011;19481;51.118;6.940;2022-11-20T15:29:25;18.27;;;8.50;;
33108;SDS011;19481;51.118;6.940;2022-11-20T15:34:27;19.92;;;8.73;;
33108;SDS011;19481;51.118;6.940;2022-11-20T15:39:30;12.65;;;7.90;;
33108;SDS011;19481;51.118;6.940;2022-11-20T15:44:32;17.90;;;9.32;;
33108;SDS011;19481;51.118;6.940;2022-11-20T15:49:33;15.43;;;8.65;;
33108;SDS011;19481;51.118;6.940;2022-11-20T15:54:38;24.40;;;10.48;;
33108;SDS011;19481;51.118;6.940;2022-11-20T15:59:39;24.05;;;11.13;;
33108;SDS011;19481;51.118;6.940;2022-11-20T16:04:41;21.98;;;9.93;;
33108;SDS011;19481;51.118;6.940;2022-11-20T16:09:44;21.15;;;11.15;;
33108;SDS011;19481;51.118;6.940;2022-11-20T16:14:46;22.50;;;10.90;;
33108;SDS011;19481;51.118;6.940;2022-11-20T16:20:05;20.33;;;11.07;;
33108;SDS011;19481;51.118;6.940;2022-11-20T16:25:12;18.40;;;9.90;;
33108;SDS011;19481;51.118;6.940;2022-11-20T16:30:14;22.02;;;9.45;;
33108;SDS011;19481;51.118;6.940;2022-11-20T16:35:16;21.77;;;10.10;;
33108;SDS011;19481;51.118;6.940;2022-11-20T16:40:19;20.10;;;9.23;;
33108;SDS011;19481;51.118;6.940;2022-11-20T16:45:20;18.13;;;8.93;;
33108;SDS011;19481;51.118;6.940;2022-11-20T16:50:22;20.23;;;9.23;;
33108;SDS011;19481;51.118;6.940;2022-11-20T16:55:25;20.95;;;10.60;;
33108;SDS011;19481;51.118;6.940;2022-11-20T17:00:26;20.48;;;9.40;;
33108;SDS011;19481;51.118;6.940;2022-11-20T17:05:28;17.40;;;8.73;;
33108;SDS011;19481;51.118;6.940;2022-11-20T17:10:31;17.60;;;9.43;;
33108;SDS011;19481;51.118;6.940;2022-11-20T17:15:33;17.33;;;8.55;;
33108;SDS011;19481;51.118;6.940;2022-11-20T17:20:34;16.15;;;7.97;;
33108;SDS011;19481;51.118;6.940;2022-11-20T17:25:37;15.55;;;8.27;;
33108;SDS011;19481;51.118;6.940;2022-11-20T17:30:39;11.35;;;6.68;;
33108;SDS011;19481;51.118;6.940;2022-11-20T17:35:40;18.08;;;6.90;;
33108;SDS011;19481;51.118;6.940;2022-11-20T17:40:43;15.85;;;6.40;;
33108;SDS011;19481;51.118;6.940;2022-11-20T17:45:45;7.90;;;5.55;;
33108;SDS011;19481;51.118;6.940;2022-11-20T17:50:47;9.93;;;4.53;;
33108;SDS011;19481;51.118;6.940;2022-11-20T17:55:55;4.32;;;3.33;;
33108;SDS011;19481;51.118;6.940;2022-11-20T18:01:14;7.30;;;4.78;;
33108;SDS011;19481;51.118;6.940;2022-11-20T18:06:16;6.40;;;3.88;;
33108;SDS011;19481;51.118;6.940;2022-11-20T18:11:21;5.72;;;3.85;;
33108;SDS011;19481;51.118;6.940;2022-11-20T18:16:25;6.05;;;3.92;;
33108;SDS011;19481;51.118;6.940;2022-11-20T18:21:28;5.07;;;3.78;;
33108;SDS011;19481;51.118;6.940;2022-11-20T18:26:32;5.40;;;4.03;;
33108;SDS011;19481;51.118;6.940;2022-11-20T18:31:34;5.13;;;4.05;;
33108;SDS011;19481;51.118;6.940;2022-11-20T18:36:36;8.18;;;3.75;;
33108;SDS011;19481;51.118;6.940;2022-11-20T18:41:39;5.25;;;3.75;;
33108;SDS011;19481;51.118;6.940;2022-11-20T18:47:09;9.20;;;3.33;;
33108;SDS011;19481;51.118;6.940;2022-11-20T18:52:12;6.63;;;3.20;;
33108;SDS011;19481;51.118;6.940;2022-11-20T18:57:16;4.43;;;3.60;;
33108;SDS011;19481;51.118;6.940;2022-11-20T19:02:18;4.30;;;3.28;;
33108;SDS011;19481;51.118;6.940;2022-11-20T19:07:20;8.27;;;3.65;;
33108;SDS011;19481;51.118;6.940;2022-11-20T19:12:24;5.70;;;3.85;;
33108;SDS011;19481;51.118;6.940;2022-11-20T19:17:25;7.72;;;3.35;;
33108;SDS011;19481;51.118;6.940;2022-11-20T19:22:27;6.00;;;3.67;;
33108;SDS011;19481;51.118;6.940;2022-11-20T19:27:30;5.72;;;3.40;;
33108;SDS011;19481;51.118;6.940;2022-11-20T19:32:31;5.78;;;3.80;;
33108;SDS011;19481;51.118;6.940;2022-11-20T19:37:34;9.68;;;3.90;;
33108;SDS011;19481;51.118;6.940;2022-11-20T19:42:37;6.15;;;3.13;;
33108;SDS011;19481;51.118;6.940;2022-11-20T19:47:39;7.32;;;2.85;;
33108;SDS011;19481;51.118;6.940;2022-11-20T19:52:41;14.48;;;3.30;;
33108;SDS011;19481;51.118;6.940;2022-11-20T19:57:43;8.23;;;3.13;;
33108;SDS011;19481;51.118;6.940;2022-11-20T20:02:45;9.70;;;3.50;;
33108;SDS011;19481;51.118;6.940;2022-11-20T20:07:47;9.90;;;4.13;;
33108;SDS011;19481;51.118;6.940;2022-11-20T20:12:50;12.30;;;3.20;;
33108;SDS011;19481;51.118;6.940;2022-11-20T20:17:51;9.15;;;3.30;;
33108;SDS011;19481;51.118;6.940;2022-11-20T20:22:53;9.25;;;2.80;;
33108;SDS011;19481;51.118;6.940;2022-11-20T20:27:56;13.70;;;3.10;;
33108;SDS011;19481;51.118;6.940;2022-11-20T20:32:58;17.75;;;3.13;;
33108;SDS011;19481;51.118;6.940;2022-11-20T20:37:59;10.73;;;2.95;;
33108;SDS011;19481;51.118;6.940;2022-11-20T20:43:02;10.90;;;3.25;;
33108;SDS011;19481;51.118;6.940;2022-11-20T20:48:04;8.02;;;2.38;;
33108;SDS011;19481;51.118;6.940;2022-11-20T20:53:06;6.20;;;2.58;;
33108;SDS011;19481;51.118;6.940;2022-11-20T20:58:09;9.02;;;3.40;;
33108;SDS011;19481;51.118;6.940;2022-11-20T21:03:10;13.18;;;2.90;;
33108;SDS011;19481;51.118;6.940;2022-11-20T21:08:12;9.00;;;2.95;;
33108;SDS011;19481;51.118;6.940;2022-11-20T21:13:25;11.02;;;2.55;;
33108;SDS011;19481;51.118;6.940;2022-11-20T21:18:26;9.57;;;3.25;;
33108;SDS011;19481;51.118;6.940;2022-11-20T21:23:28;8.43;;;2.42;;
33108;SDS011;19481;51.118;6.940;2022-11-20T21:28:32;13.48;;;2.45;;
33108;SDS011;19481;51.118;6.940;2022-11-20T21:33:37;9.63;;;2.38;;
33108;SDS011;19481;51.118;6.940;2022-11-20T21:38:40;7.55;;;2.67;;
33108;SDS011;19481;51.118;6.940;2022-11-20T21:43:43;8.32;;;2.40;;
33108;SDS011;19481;51.118;6.940;2022-11-20T21:48:45;13.20;;;2.40;;
33108;SDS011;19481;51.118;6.940;2022-11-20T21:53:47;6.93;;;1.95;;
33108;SDS011;19481;51.118;6.940;2022-11-20T21:58:51;10.55;;;2.60;;
33108;SDS011;19481;51.118;6.940;2022-11-20T22:03:54;14.02;;;2.75;;
33108;SDS011;19481;51.118;6.940;2022-11-20T22:08:57;7.40;;;2.20;;
33108;SDS011;19481;51.118;6.940;2022-11-20T22:14:00;8.70;;;1.90;;
33108;SDS011;19481;51.118;6.940;2022-11-20T22:19:20;6.85;;;2.00;;
33108;SDS011;19481;51.118;6.940;2022-11-20T22:24:22;8.95;;;2.33;;
33108;SDS011;19481;51.118;6.940;2022-11-20T22:29:25;3.40;;;1.95;;
33108;SDS011;19481;51.118;6.940;2022-11-20T22:34:26;9.68;;;2.10;;
33108;SDS011;19481;51.118;6.940;2022-11-20T22:39:28;6.43;;;2.10;;
33108;SDS011;19481;51.118;6.940;2022-11-20T22:44:31;11.35;;;2.35;;
33108;SDS011;19481;51.118;6.940;2022-11-20T22:49:33;8.65;;;2.38;;
33108;SDS011;19481;51.118;6.940;2022-11-20T22:54:34;11.80;;;2.72;;
33108;SDS011;19481;51.118;6.940;2022-11-20T22:59:37;8.55;;;2.72;;
33108;SDS011;19481;51.118;6.940;2022-11-20T23:04:40;8.30;;;2.05;;
33108;SDS011;19481;51.118;6.940;2022-11-20T23:09:43;7.95;;;2.40;;
33108;SDS011;19481;51.118;6.940;2022-11-20T23:14:46;7.25;;;2.08;;
33108;SDS011;19481;51.118;6.940;2022-11-20T23:19:47;10.13;;;2.63;;
33108;SDS011;19481;51.118;6.940;2022-11-20T23:24:49;13.93;;;3.67;;
33108;SDS011;19481;51.118;6.940;2022-11-20T23:29:52;15.02;;;4.70;;
33108;SDS011;19481;51.118;6.940;2022-11-20T23:34:53;11.50;;;3.60;;
33108;SDS011;19481;51.118;6.940;2022-11-20T23:39:55;10.90;;;3.60;;
33108;SDS011;19481;51.118;6.940;2022-11-20T23:44:58;12.95;;;3.20;;
33108;SDS011;19481;51.118;6.940;2022-11-20T23:49:59;8.73;;;3.05;;
33108;SDS011;19481;51.118;6.940;2022-11-20T23:55:01;8.50;;;2.88;;
